Time;durP1;ratioP1;P1;durP2;ratioP2;P2;SDS_P1;SDS_P2;PMS_P1;PMS_P2;Temp;Humidity;BMP_temperature;BMP_pressure;BME280_temperature;BME280_humidity;BME280_pressure;Samples;Min_cycle;Max_cycle;Signal;HPM_P1;HPM_P2
2022/03/22 00:00:33;;;;;;;9.03;6.77;;;;;;;;;;4953249;28;20188;-76
2022/03/22 00:02:59;;;;;;;8.10;6.70;;;;;;;;;;4953037;28;20215;-76
2022/03/22 00:05:25;;;;;;;9.57;6.93;;;;;;;;;;4956130;28;20208;-76
2022/03/22 00:07:52;;;;;;;10.13;7.37;;;;;;;;;;4956760;28;20306;-76
2022/03/22 00:10:18;;;;;;;9.10;6.93;;;;;;;;;;4956519;28;20181;-76
2022/03/22 00:12:44;;;;;;;10.93;7.43;;;;;;;;;;4956476;28;20183;-75
2022/03/22 00:15:10;;;;;;;9.77;7.20;;;;;;;;;;4956424;28;20670;-76
2022/03/22 00:17:37;;;;;;;12.47;7.40;;;;;;;;;;4956302;28;20186;-75
2022/03/22 00:20:05;;;;;;;12.47;7.90;;;;;;;;;;4956337;28;20639;-75
2022/03/22 00:22:31;;;;;;;11.07;7.13;;;;;;;;;;4955936;28;20707;-75
2022/03/22 00:24:57;;;;;;;9.93;7.20;;;;;;;;;;4957234;29;20563;-75
2022/03/22 00:27:23;;;;;;;10.00;7.07;;;;;;;;;;4957414;29;20177;-76
2022/03/22 00:29:49;;;;;;;10.67;7.40;;;;;;;;;;4956192;28;20189;-75
2022/03/22 00:32:15;;;;;;;9.83;7.07;;;;;;;;;;4955935;29;20185;-75
2022/03/22 00:34:44;;;;;;;10.97;7.93;;;;;;;;;;4956231;28;20201;-76
2022/03/22 00:37:19;;;;;;;10.07;6.87;;;;;;;;;;4955988;28;20598;-75
2022/03/22 00:39:46;;;;;;;12.50;8.00;;;;;;;;;;4956001;28;20173;-75
2022/03/22 00:42:14;;;;;;;10.70;7.80;;;;;;;;;;4955980;28;20188;-75
2022/03/22 00:44:40;;;;;;;10.53;7.07;;;;;;;;;;4997208;23;20226;-74
2022/03/22 00:47:07;;;;;;;10.03;7.10;;;;;;;;;;4997323;28;20175;-75
2022/03/22 00:49:33;;;;;;;10.57;7.23;;;;;;;;;;4997525;28;20167;-75
2022/03/22 00:52:01;;;;;;;10.97;7.53;;;;;;;;;;4980995;28;20254;-74
2022/03/22 00:54:27;;;;;;;9.47;7.10;;;;;;;;;;5008354;28;20255;-75
2022/03/22 00:56:54;;;;;;;10.80;7.40;;;;;;;;;;5034517;28;20544;-75
2022/03/22 01:02:05;;;;;;;10.47;7.50;;;;;;;;;;5034452;28;20192;-75
2022/03/22 01:04:31;;;;;;;10.60;7.67;;;;;;;;;;5000720;28;20293;-75
2022/03/22 01:06:57;;;;;;;11.00;7.57;;;;;;;;;;5016629;28;20682;-75
2022/03/22 01:09:23;;;;;;;11.47;7.87;;;;;;;;;;5034209;28;20674;-75
2022/03/22 01:11:51;;;;;;;10.23;7.37;;;;;;;;;;5000092;28;20209;-75
2022/03/22 01:14:17;;;;;;;9.67;7.03;;;;;;;;;;5000018;28;20212;-75
2022/03/22 01:16:43;;;;;;;9.90;6.60;;;;;;;;;;5016539;28;20177;-75
2022/03/22 01:19:09;;;;;;;10.87;8.00;;;;;;;;;;5016758;28;20185;-75
2022/03/22 01:21:35;;;;;;;9.83;6.63;;;;;;;;;;5033740;28;20587;-75
2022/03/22 01:24:06;;;;;;;10.17;6.60;;;;;;;;;;5000095;28;20691;-75
2022/03/22 01:26:32;;;;;;;10.03;7.33;;;;;;;;;;5016289;28;20229;-75
2022/03/22 01:28:58;;;;;;;10.03;7.33;;;;;;;;;;4999909;28;20180;-75
2022/03/22 01:31:25;;;;;;;10.63;7.53;;;;;;;;;;4999964;28;20181;-75
2022/03/22 01:33:51;;;;;;;10.57;7.40;;;;;;;;;;5033757;28;20659;-75
2022/03/22 01:36:17;;;;;;;8.93;6.73;;;;;;;;;;5016056;28;20267;-75
2022/03/22 01:38:44;;;;;;;9.37;7.47;;;;;;;;;;5016180;28;20308;-75
2022/03/22 01:41:11;;;;;;;9.70;7.23;;;;;;;;;;5015947;28;20181;-74
2022/03/22 01:43:37;;;;;;;8.97;7.03;;;;;;;;;;4999439;28;20241;-75
2022/03/22 01:46:03;;;;;;;9.17;6.60;;;;;;;;;;4999828;28;20255;-75
2022/03/22 01:48:29;;;;;;;10.73;7.30;;;;;;;;;;4999529;28;20189;-75
2022/03/22 01:50:55;;;;;;;10.83;7.17;;;;;;;;;;5016038;28;20180;-75
2022/03/22 01:53:22;;;;;;;11.83;7.93;;;;;;;;;;4999325;28;20232;-75
2022/03/22 01:55:48;;;;;;;10.37;7.00;;;;;;;;;;4999137;28;20188;-75
2022/03/22 01:58:14;;;;;;;9.60;7.23;;;;;;;;;;4999161;28;20191;-75
2022/03/22 02:00:40;;;;;;;10.30;7.13;;;;;;;;;;4999362;28;20186;-75
2022/03/22 02:05:52;;;;;;;9.17;7.20;;;;;;;;;;5018421;28;20264;-75
2022/03/22 02:08:24;;;;;;;9.37;7.20;;;;;;;;;;4999320;28;20276;-75
2022/03/22 02:10:50;;;;;;;11.70;7.57;;;;;;;;;;4999337;28;20192;-75
2022/03/22 02:13:16;;;;;;;11.00;7.33;;;;;;;;;;5015393;28;20556;-75
2022/03/22 02:15:43;;;;;;;12.00;8.07;;;;;;;;;;4999314;28;20190;-75
2022/03/22 02:18:09;;;;;;;9.47;7.20;;;;;;;;;;4999107;28;20197;-75
2022/03/22 02:20:37;;;;;;;11.37;7.93;;;;;;;;;;5015433;28;20185;-75
2022/03/22 02:23:06;;;;;;;9.47;7.00;;;;;;;;;;5032694;28;20200;-75
2022/03/22 02:25:35;;;;;;;10.40;7.33;;;;;;;;;;5032689;28;20201;-74
2022/03/22 02:28:03;;;;;;;11.47;7.57;;;;;;;;;;5014727;28;20216;-74
2022/03/22 02:30:29;;;;;;;10.73;7.43;;;;;;;;;;5032754;28;20176;-75
2022/03/22 02:32:58;;;;;;;10.40;7.23;;;;;;;;;;5032520;28;20727;-75
2022/03/22 02:35:24;;;;;;;11.30;8.07;;;;;;;;;;5032523;28;20563;-75
2022/03/22 02:37:51;;;;;;;9.47;7.30;;;;;;;;;;5014890;28;20230;-74
2022/03/22 02:40:17;;;;;;;9.97;7.90;;;;;;;;;;5014912;28;20181;-75
2022/03/22 02:42:44;;;;;;;11.53;7.43;;;;;;;;;;4998561;28;20189;-75
2022/03/22 02:45:11;;;;;;;13.23;7.97;;;;;;;;;;4998577;28;20216;-75
2022/03/22 02:47:38;;;;;;;10.30;7.60;;;;;;;;;;4998738;28;20209;-74
2022/03/22 02:50:04;;;;;;;11.63;8.50;;;;;;;;;;5014746;28;20182;-74
2022/03/22 02:52:31;;;;;;;11.53;7.77;;;;;;;;;;4998328;28;20183;-75
2022/03/22 02:54:57;;;;;;;9.60;7.90;;;;;;;;;;5014671;28;20196;-75
2022/03/22 02:57:23;;;;;;;11.50;8.03;;;;;;;;;;4998507;28;20180;-75
2022/03/22 02:59:49;;;;;;;11.87;8.03;;;;;;;;;;5014702;28;20173;-75
2022/03/22 03:02:15;;;;;;;12.47;8.30;;;;;;;;;;5014600;28;20183;-75
2022/03/22 03:04:41;;;;;;;11.13;8.13;;;;;;;;;;4998154;28;20200;-75
2022/03/22 03:07:07;;;;;;;11.37;8.30;;;;;;;;;;4998558;28;20699;-74
2022/03/22 03:09:33;;;;;;;11.40;7.77;;;;;;;;;;4998426;28;20185;-74
2022/03/22 03:12:00;;;;;;;10.30;8.00;;;;;;;;;;4998080;28;20273;-75
2022/03/22 03:14:41;;;;;;;11.73;8.27;;;;;;;;;;5014312;28;20196;-75
2022/03/22 03:17:08;;;;;;;11.97;8.07;;;;;;;;;;5032193;28;20167;-75
2022/03/22 03:19:34;;;;;;;11.67;7.70;;;;;;;;;;5014595;28;20180;-74
2022/03/22 03:22:00;;;;;;;11.27;8.20;;;;;;;;;;5014119;28;20208;-75
2022/03/22 03:24:26;;;;;;;10.20;8.00;;;;;;;;;;5014575;28;20204;-75
2022/03/22 03:26:52;;;;;;;13.20;8.60;;;;;;;;;;4998351;28;20214;-75
2022/03/22 03:29:18;;;;;;;10.87;8.37;;;;;;;;;;5014575;28;20175;-74
2022/03/22 03:31:44;;;;;;;11.20;8.23;;;;;;;;;;5031688;28;20234;-75
2022/03/22 03:34:10;;;;;;;10.37;7.73;;;;;;;;;;5014049;28;20200;-75
2022/03/22 03:36:36;;;;;;;10.77;7.80;;;;;;;;;;4997880;28;20191;-75
2022/03/22 03:39:04;;;;;;;11.67;7.90;;;;;;;;;;5001124;28;20186;-75
2022/03/22 03:47:11;;;;;;;11.60;7.77;;;;;;;;;;5021051;28;20312;-75
2022/03/22 03:49:58;;;;;;;11.67;7.60;;;;;;;;;;5018166;28;20620;-75
2022/03/22 03:52:25;;;;;;;12.03;7.90;;;;;;;;;;5017840;28;20182;-75
2022/03/22 03:54:52;;;;;;;11.80;7.93;;;;;;;;;;5017714;28;20612;-75
2022/03/22 03:57:19;;;;;;;12.80;8.20;;;;;;;;;;5017764;28;20182;-75
2022/03/22 03:59:45;;;;;;;10.57;7.90;;;;;;;;;;5017858;28;20179;-74
2022/03/22 04:02:11;;;;;;;12.17;7.87;;;;;;;;;;5035351;28;20176;-75
2022/03/22 04:04:38;;;;;;;12.47;8.30;;;;;;;;;;5001497;28;20207;-75
2022/03/22 04:07:05;;;;;;;11.90;8.13;;;;;;;;;;5035309;28;20680;-75
2022/03/22 04:09:35;;;;;;;12.13;7.97;;;;;;;;;;5001620;28;20182;-75
2022/03/22 04:12:02;;;;;;;11.47;8.17;;;;;;;;;;5017431;28;20257;-74
2022/03/22 04:14:28;;;;;;;11.57;8.50;;;;;;;;;;5035436;28;20190;-75
2022/03/22 04:16:57;;;;;;;11.57;7.90;;;;;;;;;;5017383;28;20209;-75
2022/03/22 04:19:24;;;;;;;11.27;7.97;;;;;;;;;;5035213;28;20174;-74
2022/03/22 04:21:50;;;;;;;10.97;7.43;;;;;;;;;;5017153;28;20182;-74
2022/03/22 04:24:16;;;;;;;14.00;8.13;;;;;;;;;;5017566;28;20214;-75
2022/03/22 04:26:43;;;;;;;11.30;8.37;;;;;;;;;;5017215;28;20206;-74
2022/03/22 04:34:40;;;;;;;10.53;8.20;;;;;;;;;;5019362;28;20237;-74
2022/03/22 04:37:07;;;;;;;11.27;7.43;;;;;;;;;;5017134;28;20655;-75
2022/03/22 04:39:33;;;;;;;11.77;8.07;;;;;;;;;;5017202;28;20792;-74
2022/03/22 04:42:01;;;;;;;10.43;7.60;;;;;;;;;;5017180;28;20550;-74
2022/03/22 04:44:28;;;;;;;11.03;7.93;;;;;;;;;;5017159;28;20281;-75
2022/03/22 04:46:55;;;;;;;10.97;8.43;;;;;;;;;;5017109;28;20210;-75
2022/03/22 04:49:21;;;;;;;10.93;7.60;;;;;;;;;;5016645;28;20245;-75
2022/03/22 04:57:16;;;;;;;11.83;7.63;;;;;;;;;;5019976;28;20189;-74
2022/03/22 04:59:43;;;;;;;11.53;7.63;;;;;;;;;;5017065;28;20179;-75
2022/03/22 05:02:10;;;;;;;13.77;8.33;;;;;;;;;;5016494;28;20182;-75
2022/03/22 05:04:36;;;;;;;13.17;8.70;;;;;;;;;;5016531;28;20202;-74
2022/03/22 05:07:02;;;;;;;13.67;8.37;;;;;;;;;;5016453;28;20647;-75
2022/03/22 05:09:29;;;;;;;11.47;7.87;;;;;;;;;;5016743;28;20183;-75
2022/03/22 05:11:55;;;;;;;11.47;7.70;;;;;;;;;;5016207;28;20202;-75
2022/03/22 05:14:22;;;;;;;12.53;8.43;;;;;;;;;;5016895;28;20202;-74
2022/03/22 05:16:48;;;;;;;12.27;8.70;;;;;;;;;;5016375;28;20480;-75
2022/03/22 05:19:14;;;;;;;12.80;8.47;;;;;;;;;;5016490;28;20182;-74
2022/03/22 05:21:40;;;;;;;12.17;8.33;;;;;;;;;;5016219;28;20182;-75
2022/03/22 05:24:09;;;;;;;11.77;8.10;;;;;;;;;;5016136;28;20213;-75
2022/03/22 05:26:36;;;;;;;15.13;8.57;;;;;;;;;;5016276;28;20260;-75
2022/03/22 05:29:05;;;;;;;11.63;7.60;;;;;;;;;;5016171;28;20593;-75
2022/03/22 05:31:32;;;;;;;12.10;8.07;;;;;;;;;;5015957;28;20182;-74
2022/03/22 05:33:59;;;;;;;11.10;7.87;;;;;;;;;;5033731;28;20472;-74
2022/03/22 05:36:25;;;;;;;12.07;8.10;;;;;;;;;;5016221;28;20197;-74
2022/03/22 05:38:55;;;;;;;11.33;7.90;;;;;;;;;;5015910;28;20174;-74
2022/03/22 05:41:22;;;;;;;10.03;7.53;;;;;;;;;;5033722;28;20174;-74
2022/03/22 05:43:49;;;;;;;10.97;7.57;;;;;;;;;;5016276;28;20275;-74
2022/03/22 05:46:18;;;;;;;12.97;8.07;;;;;;;;;;5016026;28;20688;-74
2022/03/22 05:48:44;;;;;;;13.00;7.80;;;;;;;;;;5016255;28;20183;-74
2022/03/22 05:51:10;;;;;;;12.53;8.43;;;;;;;;;;5015718;28;20179;-74
2022/03/22 05:53:36;;;;;;;11.63;8.23;;;;;;;;;;5015630;28;20326;-74
2022/03/22 05:56:03;;;;;;;13.20;8.13;;;;;;;;;;5015962;28;20209;-74
2022/03/22 05:58:29;;;;;;;11.03;7.60;;;;;;;;;;5015857;28;20182;-77
2022/03/22 06:00:55;;;;;;;11.17;7.63;;;;;;;;;;5015257;28;20193;-79
2022/03/22 06:03:22;;;;;;;12.63;8.27;;;;;;;;;;5015133;28;20174;-74
2022/03/22 06:05:50;;;;;;;12.00;8.20;;;;;;;;;;5015724;28;20348;-74
2022/03/22 06:08:16;;;;;;;9.53;7.27;;;;;;;;;;5015453;28;20201;-74
2022/03/22 06:10:42;;;;;;;14.43;7.87;;;;;;;;;;5015301;28;20236;-74
2022/03/22 06:13:08;;;;;;;13.53;8.43;;;;;;;;;;5015489;28;20567;-74
2022/03/22 06:15:34;;;;;;;11.13;8.13;;;;;;;;;;5015553;28;20559;-74
2022/03/22 06:18:04;;;;;;;12.17;8.70;;;;;;;;;;5015312;28;20188;-75
2022/03/22 06:20:32;;;;;;;10.87;7.23;;;;;;;;;;5015103;28;20186;-74
2022/03/22 06:22:58;;;;;;;10.70;6.93;;;;;;;;;;5015057;28;20220;-80
2022/03/22 06:25:25;;;;;;;9.90;7.27;;;;;;;;;;5015365;28;20206;-74
2022/03/22 06:27:51;;;;;;;11.70;8.33;;;;;;;;;;5015337;28;20274;-74
2022/03/22 06:30:18;;;;;;;11.77;8.40;;;;;;;;;;5015182;28;20257;-74
2022/03/22 06:32:49;;;;;;;12.00;8.57;;;;;;;;;;5032655;28;20160;-75
2022/03/22 06:35:16;;;;;;;11.97;8.13;;;;;;;;;;5015020;28;20196;-75
2022/03/22 06:37:43;;;;;;;12.43;9.10;;;;;;;;;;5032734;28;20242;-74
2022/03/22 06:40:10;;;;;;;12.50;9.17;;;;;;;;;;5032844;28;20169;-75
2022/03/22 06:42:36;;;;;;;13.17;9.93;;;;;;;;;;5032395;28;20206;-75
2022/03/22 06:45:03;;;;;;;15.43;10.53;;;;;;;;;;5015239;28;20304;-76
2022/03/22 06:47:30;;;;;;;14.13;9.60;;;;;;;;;;5015285;28;20272;-75
2022/03/22 06:49:56;;;;;;;14.07;9.70;;;;;;;;;;5014865;28;20666;-75
2022/03/22 06:52:22;;;;;;;14.17;9.40;;;;;;;;;;5032365;28;20190;-76
2022/03/22 07:05:12;;;;;;;15.20;10.20;;;;;;;;;;5237849;23;20258;-75
2022/03/22 07:07:38;;;;;;;14.47;10.50;;;;;;;;;;4995066;28;20181;-75
2022/03/22 07:10:05;;;;;;;14.93;10.83;;;;;;;;;;4994865;28;20192;-75
2022/03/22 07:12:32;;;;;;;14.10;10.10;;;;;;;;;;4994559;28;20176;-75
2022/03/22 07:14:58;;;;;;;15.30;10.43;;;;;;;;;;5026535;28;20186;-75
2022/03/22 07:17:24;;;;;;;16.77;10.67;;;;;;;;;;4998955;28;20207;-74
2022/03/22 07:19:51;;;;;;;19.00;10.53;;;;;;;;;;4998250;28;20181;-74
2022/03/22 07:22:17;;;;;;;15.27;11.43;;;;;;;;;;5014283;28;20188;-74
2022/03/22 07:24:43;;;;;;;15.80;10.90;;;;;;;;;;5014361;28;20338;-74
2022/03/22 07:27:10;;;;;;;18.70;11.10;;;;;;;;;;5014270;28;20210;-74
2022/03/22 07:29:36;;;;;;;13.90;10.57;;;;;;;;;;5014307;28;20275;-74
2022/03/22 07:32:03;;;;;;;15.77;11.30;;;;;;;;;;4997992;28;20257;-75
2022/03/22 07:34:29;;;;;;;15.50;10.53;;;;;;;;;;5014229;28;20202;-74
2022/03/22 07:36:55;;;;;;;14.67;10.70;;;;;;;;;;5014204;28;20183;-74
2022/03/22 07:39:23;;;;;;;15.27;10.90;;;;;;;;;;5014506;28;20176;-74
2022/03/22 07:41:49;;;;;;;17.10;11.27;;;;;;;;;;5031593;28;20173;-75
2022/03/22 07:44:15;;;;;;;18.30;12.00;;;;;;;;;;5014094;28;20201;-74
2022/03/22 07:46:42;;;;;;;16.67;12.10;;;;;;;;;;5014338;28;20696;-75
2022/03/22 07:54:39;;;;;;;18.57;12.90;;;;;;;;;;5031364;28;20229;-75
2022/03/22 07:57:07;;;;;;;17.00;12.07;;;;;;;;;;5014593;28;20170;-75
2022/03/22 07:59:33;;;;;;;15.57;11.77;;;;;;;;;;5032325;28;20181;-75
2022/03/22 08:02:00;;;;;;;19.43;12.70;;;;;;;;;;5031951;28;20182;-75
2022/03/22 08:04:26;;;;;;;15.70;11.70;;;;;;;;;;5031581;28;20212;-75
2022/03/22 08:06:52;;;;;;;16.97;11.37;;;;;;;;;;5013640;28;20247;-74
2022/03/22 08:09:18;;;;;;;15.83;11.37;;;;;;;;;;4997996;28;20177;-75
2022/03/22 08:11:44;;;;;;;16.80;12.23;;;;;;;;;;5013718;28;20262;-75
2022/03/22 08:14:10;;;;;;;16.63;11.73;;;;;;;;;;5013936;28;20193;-75
2022/03/22 08:16:36;;;;;;;17.80;12.20;;;;;;;;;;5031570;28;20181;-75
2022/03/22 08:19:05;;;;;;;18.93;12.40;;;;;;;;;;4997700;28;20186;-75
2022/03/22 08:21:31;;;;;;;17.77;12.80;;;;;;;;;;4997675;28;20215;-74
2022/03/22 08:23:58;;;;;;;17.90;12.73;;;;;;;;;;4997603;28;20205;-75
2022/03/22 08:26:25;;;;;;;16.07;12.00;;;;;;;;;;5017058;28;20210;-75
2022/03/22 08:28:51;;;;;;;16.23;12.03;;;;;;;;;;5017416;28;20266;-74
2022/03/22 08:31:17;;;;;;;16.87;11.83;;;;;;;;;;5017215;28;20205;-75
2022/03/22 08:33:43;;;;;;;18.63;12.53;;;;;;;;;;5000979;28;20293;-74
2022/03/22 08:36:09;;;;;;;18.30;12.07;;;;;;;;;;5017256;28;20193;-74
2022/03/22 08:38:35;;;;;;;22.20;13.80;;;;;;;;;;5017493;28;20244;-74
2022/03/22 08:41:01;;;;;;;18.80;12.67;;;;;;;;;;5000731;28;20187;-74
2022/03/22 08:43:28;;;;;;;16.20;12.23;;;;;;;;;;5000764;28;20271;-75
2022/03/22 08:45:55;;;;;;;16.07;11.43;;;;;;;;;;5016934;28;20257;-74
2022/03/22 08:48:21;;;;;;;15.23;11.20;;;;;;;;;;5017023;28;20228;-75
2022/03/22 08:50:49;;;;;;;16.53;11.27;;;;;;;;;;5000695;28;20193;-74
2022/03/22 08:53:16;;;;;;;17.80;12.00;;;;;;;;;;5016835;28;20207;-74
2022/03/22 08:55:42;;;;;;;15.60;10.53;;;;;;;;;;5016974;28;20176;-75
2022/03/22 08:58:08;;;;;;;18.13;11.53;;;;;;;;;;5016729;28;20179;-75
2022/03/22 09:00:35;;;;;;;14.20;10.90;;;;;;;;;;5016847;28;20194;-75
2022/03/22 09:03:02;;;;;;;17.27;10.70;;;;;;;;;;5000367;28;20188;-75
2022/03/22 09:08:13;;;;;;;14.93;10.70;;;;;;;;;;5019788;28;20197;-75
2022/03/22 09:10:39;;;;;;;18.63;12.53;;;;;;;;;;5000100;28;20231;-75
2022/03/22 09:13:06;;;;;;;14.33;10.07;;;;;;;;;;5016704;28;20178;-75
2022/03/22 09:15:36;;;;;;;14.40;10.37;;;;;;;;;;5016486;28;20204;-75
2022/03/22 09:18:02;;;;;;;13.47;10.13;;;;;;;;;;5034531;28;20617;-75
2022/03/22 09:20:32;;;;;;;13.57;9.73;;;;;;;;;;5016493;28;20194;-76
2022/03/22 09:23:00;;;;;;;13.73;10.37;;;;;;;;;;5000468;28;20328;-75
2022/03/22 09:25:27;;;;;;;14.33;10.20;;;;;;;;;;5016026;28;20214;-74
2022/03/22 09:27:53;;;;;;;13.87;10.33;;;;;;;;;;5000480;28;20171;-75
2022/03/22 09:30:20;;;;;;;14.63;10.13;;;;;;;;;;5016112;28;20177;-75
2022/03/22 09:32:46;;;;;;;13.23;10.20;;;;;;;;;;5016215;28;20548;-75
2022/03/22 09:35:13;;;;;;;16.20;10.47;;;;;;;;;;4999736;28;20208;-75
2022/03/22 09:37:41;;;;;;;13.37;9.93;;;;;;;;;;5033759;28;20168;-75
2022/03/22 09:40:08;;;;;;;14.17;10.10;;;;;;;;;;5016082;28;20171;-75
2022/03/22 09:42:35;;;;;;;13.03;10.00;;;;;;;;;;4999443;28;20319;-75
2022/03/22 09:45:01;;;;;;;13.27;10.57;;;;;;;;;;5033648;28;20249;-75
2022/03/22 09:47:28;;;;;;;13.60;10.37;;;;;;;;;;5015710;28;20214;-75
2022/03/22 09:49:55;;;;;;;14.63;10.97;;;;;;;;;;5015898;28;20199;-74
2022/03/22 09:52:21;;;;;;;14.53;10.17;;;;;;;;;;5015616;28;20553;-75
2022/03/22 09:54:48;;;;;;;12.47;9.83;;;;;;;;;;5015774;28;20197;-75
2022/03/22 09:57:14;;;;;;;14.77;9.93;;;;;;;;;;5015698;28;20182;-75
2022/03/22 09:59:40;;;;;;;13.87;10.00;;;;;;;;;;5015631;28;20178;-74
2022/03/22 10:02:06;;;;;;;12.80;10.00;;;;;;;;;;4999295;28;20559;-75
2022/03/22 10:04:40;;;;;;;13.10;10.00;;;;;;;;;;5015733;28;20228;-75
2022/03/22 10:07:06;;;;;;;11.33;8.87;;;;;;;;;;5033364;28;20210;-75
2022/03/22 10:09:39;;;;;;;12.53;9.63;;;;;;;;;;5015463;28;20170;-74
2022/03/22 10:12:08;;;;;;;12.30;9.47;;;;;;;;;;5015264;28;20178;-75
2022/03/22 10:14:37;;;;;;;11.67;9.10;;;;;;;;;;5033254;28;20559;-75
2022/03/22 10:17:17;;;;;;;12.47;9.37;;;;;;;;;;5015378;28;20180;-75
2022/03/22 10:19:47;;;;;;;12.20;8.83;;;;;;;;;;5015315;28;20551;-75
2022/03/22 10:22:14;;;;;;;12.17;9.13;;;;;;;;;;5015229;28;20201;-75
2022/03/22 10:24:44;;;;;;;10.63;8.30;;;;;;;;;;5033014;28;20234;-75
2022/03/22 10:27:22;;;;;;;8.97;8.03;;;;;;;;;;5015324;28;20241;-75
2022/03/22 10:29:49;;;;;;;11.20;8.90;;;;;;;;;;5015310;28;20171;-75
2022/03/22 10:32:15;;;;;;;9.30;7.43;;;;;;;;;;5015130;28;20171;-75
2022/03/22 10:34:42;;;;;;;10.67;8.17;;;;;;;;;;5032608;28;20250;-75
2022/03/22 10:37:08;;;;;;;13.50;8.83;;;;;;;;;;4998847;28;20182;-74
2022/03/22 10:39:35;;;;;;;9.57;8.40;;;;;;;;;;5032547;28;20173;-75
2022/03/22 10:42:06;;;;;;;11.90;8.20;;;;;;;;;;5014732;28;20712;-75
2022/03/22 10:44:35;;;;;;;10.53;8.20;;;;;;;;;;4998734;28;20198;-74
2022/03/22 10:47:02;;;;;;;9.40;7.87;;;;;;;;;;5014721;28;20728;-75
2022/03/22 10:49:29;;;;;;;8.57;7.43;;;;;;;;;;4998550;28;20231;-75
2022/03/22 10:51:56;;;;;;;9.27;7.93;;;;;;;;;;5014676;28;20174;-74
2022/03/22 10:54:22;;;;;;;9.67;7.80;;;;;;;;;;5015204;28;20229;-75
2022/03/22 10:56:50;;;;;;;9.63;7.20;;;;;;;;;;5014919;28;20190;-75
2022/03/22 10:59:17;;;;;;;8.87;7.80;;;;;;;;;;5032458;28;20655;-75
2022/03/22 11:01:44;;;;;;;7.63;6.83;;;;;;;;;;4998341;28;20183;-74
2022/03/22 11:04:10;;;;;;;8.43;7.53;;;;;;;;;;5014491;28;20212;-75
2022/03/22 11:06:37;;;;;;;9.63;7.40;;;;;;;;;;5014616;28;20210;-75
2022/03/22 11:09:03;;;;;;;9.20;7.40;;;;;;;;;;4998301;28;20182;-74
2022/03/22 11:11:31;;;;;;;7.90;6.90;;;;;;;;;;5014112;28;20175;-75
2022/03/22 11:13:59;;;;;;;8.93;7.23;;;;;;;;;;5014490;28;20681;-74
2022/03/22 11:16:27;;;;;;;9.03;6.90;;;;;;;;;;4997954;28;20188;-75
2022/03/22 11:18:54;;;;;;;8.73;7.20;;;;;;;;;;5014553;28;20250;-75
2022/03/22 11:21:20;;;;;;;8.57;6.70;;;;;;;;;;5014393;28;20185;-75
2022/03/22 11:23:47;;;;;;;7.53;6.70;;;;;;;;;;4998021;28;20218;-75
2022/03/22 11:26:17;;;;;;;8.60;7.23;;;;;;;;;;5032091;28;20687;-75
2022/03/22 11:28:44;;;;;;;8.67;7.10;;;;;;;;;;5014400;28;20181;-75
2022/03/22 11:31:10;;;;;;;9.07;7.10;;;;;;;;;;5014207;28;20660;-75
2022/03/22 11:36:29;;;;;;;8.80;6.63;;;;;;;;;;5032155;28;20233;-75
2022/03/22 11:38:56;;;;;;;8.03;6.97;;;;;;;;;;5014234;28;20170;-75
2022/03/22 11:44:22;;;;;;;7.53;6.73;;;;;;;;;;5032176;28;20205;-76
2022/03/22 11:47:00;;;;;;;10.77;7.00;;;;;;;;;;4997826;28;20245;-75
2022/03/22 11:49:26;;;;;;;7.67;6.30;;;;;;;;;;5014135;28;20736;-75
2022/03/22 11:52:11;;;;;;;8.07;6.63;;;;;;;;;;5013974;28;20189;-75
2022/03/22 11:54:38;;;;;;;8.40;6.90;;;;;;;;;;5014015;28;20348;-75
2022/03/22 11:57:04;;;;;;;7.90;6.13;;;;;;;;;;5014033;28;20667;-75
2022/03/22 11:59:41;;;;;;;7.60;6.80;;;;;;;;;;4998244;28;20715;-75
2022/03/22 12:02:12;;;;;;;7.93;6.47;;;;;;;;;;5017622;28;20174;-75
2022/03/22 12:04:39;;;;;;;8.83;6.20;;;;;;;;;;5017767;28;20222;-75
2022/03/22 12:07:06;;;;;;;6.87;6.17;;;;;;;;;;5017587;28;20210;-75
2022/03/22 12:09:32;;;;;;;8.70;6.17;;;;;;;;;;5017762;28;20185;-76
2022/03/22 12:12:00;;;;;;;8.47;6.13;;;;;;;;;;5017584;28;20174;-76
2022/03/22 12:14:34;;;;;;;8.70;6.53;;;;;;;;;;5001685;28;20205;-75
2022/03/22 12:17:00;;;;;;;7.70;6.33;;;;;;;;;;5035232;28;20181;-75
2022/03/22 12:22:18;;;;;;;7.70;6.13;;;;;;;;;;5035521;28;20162;-75
2022/03/22 12:24:45;;;;;;;7.17;6.20;;;;;;;;;;5001695;28;20213;-75
2022/03/22 12:27:11;;;;;;;7.53;6.10;;;;;;;;;;5017318;28;20194;-75
2022/03/22 12:29:45;;;;;;;7.87;5.80;;;;;;;;;;5001299;28;20182;-75
2022/03/22 12:32:15;;;;;;;10.37;5.73;;;;;;;;;;5016938;28;20607;-75
2022/03/22 12:34:43;;;;;;;7.38;5.63;;;;;;;;;;5001164;28;20202;-75
2022/03/22 12:37:09;;;;;;;8.73;6.10;;;;;;;;;;5017085;28;20557;-75
2022/03/22 12:39:37;;;;;;;6.35;5.43;;;;;;;;;;5034894;28;20189;-75
2022/03/22 12:42:03;;;;;;;6.72;5.38;;;;;;;;;;5017148;28;20182;-75
2022/03/22 12:44:29;;;;;;;7.85;5.40;;;;;;;;;;5017239;28;20313;-75
2022/03/22 12:46:56;;;;;;;8.48;5.43;;;;;;;;;;5017111;28;20210;-75
2022/03/22 12:49:23;;;;;;;8.10;5.47;;;;;;;;;;5034876;28;20162;-75
2022/03/22 12:51:49;;;;;;;8.55;5.35;;;;;;;;;;5016883;28;20259;-74
2022/03/22 12:54:17;;;;;;;6.35;5.43;;;;;;;;;;5016874;28;20560;-75
2022/03/22 12:56:47;;;;;;;6.97;5.57;;;;;;;;;;5001131;28;20232;-75
2022/03/22 12:59:20;;;;;;;6.05;4.93;;;;;;;;;;5000811;28;20175;-75
2022/03/22 13:01:46;;;;;;;8.00;5.45;;;;;;;;;;5034276;28;20284;-75
2022/03/22 13:04:21;;;;;;;5.75;4.82;;;;;;;;;;5034335;28;20224;-74
2022/03/22 13:06:49;;;;;;;6.18;5.07;;;;;;;;;;5016806;28;20537;-75
2022/03/22 13:12:00;;;;;;;6.28;5.03;;;;;;;;;;5018968;28;20667;-75
2022/03/22 13:17:10;;;;;;;5.43;4.90;;;;;;;;;;5020373;28;20212;-75
2022/03/22 13:19:38;;;;;;;7.82;5.40;;;;;;;;;;5016840;28;20167;-75
2022/03/22 13:22:04;;;;;;;7.45;5.30;;;;;;;;;;5016569;28;20175;-75
2022/03/22 13:24:35;;;;;;;7.47;5.03;;;;;;;;;;5000163;28;20224;-75
2022/03/22 13:27:02;;;;;;;9.02;4.95;;;;;;;;;;5000713;28;20210;-75
2022/03/22 13:29:42;;;;;;;8.60;5.07;;;;;;;;;;5016322;28;20245;-75
2022/03/22 13:32:20;;;;;;;6.57;4.97;;;;;;;;;;4999923;28;20569;-75
2022/03/22 13:34:47;;;;;;;6.32;5.20;;;;;;;;;;5033796;28;20206;-75
2022/03/22 13:37:14;;;;;;;6.13;4.65;;;;;;;;;;5016231;28;20179;-75
2022/03/22 13:39:44;;;;;;;5.35;4.50;;;;;;;;;;4999985;28;20181;-75
2022/03/22 13:42:15;;;;;;;8.23;4.82;;;;;;;;;;5016100;28;20178;-75
2022/03/22 13:44:44;;;;;;;9.15;5.25;;;;;;;;;;5033821;28;20197;-75
2022/03/22 13:47:10;;;;;;;6.15;4.97;;;;;;;;;;5033539;28;20236;-75
2022/03/22 13:49:37;;;;;;;6.55;4.70;;;;;;;;;;5033636;28;20261;-75
2022/03/22 13:52:04;;;;;;;5.70;5.05;;;;;;;;;;5033385;28;20188;-75
2022/03/22 13:54:30;;;;;;;8.15;5.20;;;;;;;;;;5033577;28;20213;-75
2022/03/22 13:57:09;;;;;;;6.05;4.53;;;;;;;;;;5033393;28;20602;-75
2022/03/22 13:59:39;;;;;;;7.20;4.75;;;;;;;;;;5015869;28;20178;-75
2022/03/22 14:02:06;;;;;;;6.22;4.35;;;;;;;;;;5015438;28;20189;-75
2022/03/22 14:04:34;;;;;;;10.32;5.00;;;;;;;;;;5033195;28;20213;-75
2022/03/22 14:07:00;;;;;;;6.55;5.13;;;;;;;;;;5015892;28;20221;-75
2022/03/22 14:09:27;;;;;;;6.07;4.93;;;;;;;;;;5015727;28;20228;-75
2022/03/22 14:11:53;;;;;;;8.02;5.30;;;;;;;;;;4999034;28;20261;-75
2022/03/22 14:14:19;;;;;;;6.30;4.78;;;;;;;;;;4999295;28;20198;-75
2022/03/22 14:16:58;;;;;;;5.60;4.97;;;;;;;;;;5110270;27;20529;-74
2022/03/22 14:19:24;;;;;;;8.60;5.38;;;;;;;;;;5108773;28;20182;-73
2022/03/22 14:21:50;;;;;;;8.32;4.93;;;;;;;;;;5108496;28;20638;-73
2022/03/22 14:24:16;;;;;;;7.13;5.20;;;;;;;;;;5092002;28;20195;-73
2022/03/22 14:26:43;;;;;;;6.32;4.93;;;;;;;;;;5092066;28;20677;-74
2022/03/22 14:29:09;;;;;;;5.53;4.53;;;;;;;;;;5110535;28;20159;-78
2022/03/22 14:31:35;;;;;;;8.25;4.50;;;;;;;;;;5108462;28;20641;-74
2022/03/22 14:34:01;;;;;;;6.65;4.70;;;;;;;;;;5109619;28;20199;-74
2022/03/22 14:36:27;;;;;;;8.05;4.43;;;;;;;;;;5108447;28;20196;-74
2022/03/22 14:38:53;;;;;;;7.32;5.10;;;;;;;;;;5108627;28;20171;-73
2022/03/22 14:41:25;;;;;;;5.03;4.40;;;;;;;;;;5108216;28;20176;-73
2022/03/22 14:43:51;;;;;;;4.80;4.25;;;;;;;;;;5092325;28;20225;-73
2022/03/22 14:46:18;;;;;;;5.82;4.90;;;;;;;;;;5109569;28;20164;-74
2022/03/22 14:48:49;;;;;;;6.97;5.25;;;;;;;;;;5108344;28;20168;-74
2022/03/22 14:51:16;;;;;;;7.38;5.20;;;;;;;;;;5109407;28;20168;-75
2022/03/22 14:59:12;;;;;;;7.25;5.03;;;;;;;;;;5108546;28;20174;-74
2022/03/22 15:01:38;;;;;;;6.03;5.00;;;;;;;;;;5107740;28;20172;-74
2022/03/22 15:04:04;;;;;;;6.80;4.90;;;;;;;;;;5107913;28;20184;-74
2022/03/22 15:06:31;;;;;;;5.57;4.82;;;;;;;;;;5107905;28;20545;-74
2022/03/22 15:08:57;;;;;;;6.03;4.50;;;;;;;;;;5107914;28;20172;-74
2022/03/22 15:11:24;;;;;;;5.78;4.50;;;;;;;;;;5107859;28;20183;-74
2022/03/22 15:13:51;;;;;;;5.85;4.32;;;;;;;;;;5107723;28;20195;-74
2022/03/22 15:16:17;;;;;;;6.82;5.18;;;;;;;;;;5108780;28;20234;-74
2022/03/22 15:18:44;;;;;;;8.15;4.40;;;;;;;;;;5108873;28;20171;-74
2022/03/22 15:21:10;;;;;;;5.00;4.50;;;;;;;;;;5107511;28;20180;-74
2022/03/22 15:23:39;;;;;;;5.72;4.20;;;;;;;;;;5090525;28;20737;-74
2022/03/22 15:26:06;;;;;;;6.63;4.13;;;;;;;;;;5090369;28;20182;-74
2022/03/22 15:28:35;;;;;;;5.05;4.20;;;;;;;;;;5094586;28;20165;-74
2022/03/22 15:31:01;;;;;;;6.32;4.18;;;;;;;;;;5094977;28;20164;-73
2022/03/22 15:33:27;;;;;;;4.82;4.20;;;;;;;;;;5093828;28;20183;-73